Time;durP1;ratioP1;P1;durP2;ratioP2;P2;SDS_P1;SDS_P2;PMS_P1;PMS_P2;Temp;Humidity;BMP_temperature;BMP_pressure;BME280_temperature;BME280_humidity;BME280_pressure;Samples;Min_cycle;Max_cycle;Signal;HPM_P1;HPM_P2
2021/04/04 00:00:09;;;;;;;30.02;14.60;;;;;;;2.51;79.88;100260.03;5119828;28;20039;-44
2021/04/04 00:02:57;;;;;;;31.60;13.80;;;;;;;2.54;79.75;100258.34;5119020;28;20051;-44
2021/04/04 00:05:23;;;;;;;29.77;13.80;;;;;;;2.52;79.70;100257.44;5102094;28;20058;-44
2021/04/04 00:07:49;;;;;;;30.33;13.88;;;;;;;2.54;79.85;100260.94;5118817;28;20048;-44
2021/04/04 00:10:15;;;;;;;23.75;12.40;;;;;;;2.52;79.80;100260.03;5119498;28;20052;-44
2021/04/04 00:12:41;;;;;;;25.42;12.60;;;;;;;2.54;80.21;100262.66;5119576;28;20053;-44
2021/04/04 00:15:07;;;;;;;24.60;11.80;;;;;;;2.60;79.84;100256.69;5118918;28;20043;-44
2021/04/04 00:17:33;;;;;;;28.30;13.32;;;;;;;2.61;79.69;100256.72;5119492;27;20421;-44
2021/04/04 00:19:59;;;;;;;30.52;12.32;;;;;;;2.57;79.75;100260.13;5118517;28;20052;-44
2021/04/04 00:22:25;;;;;;;30.17;14.05;;;;;;;2.60;79.77;100261.84;5119299;28;20050;-44
2021/04/04 00:24:50;;;;;;;26.17;13.50;;;;;;;2.59;79.65;100261.00;5119331;28;20059;-44
2021/04/04 00:27:16;;;;;;;29.00;12.70;;;;;;;2.60;79.78;100260.16;5119542;28;20048;-44
2021/04/04 00:29:42;;;;;;;26.15;11.88;;;;;;;2.61;79.73;100269.66;5118396;28;20040;-44
2021/04/04 00:32:07;;;;;;;29.10;12.73;;;;;;;2.48;80.12;100273.78;5119178;28;20411;-44
2021/04/04 00:34:33;;;;;;;25.48;12.80;;;;;;;2.48;80.42;100276.34;5119082;27;20055;-44
2021/04/04 00:36:59;;;;;;;29.33;12.85;;;;;;;2.46;80.30;100269.41;5118283;28;20345;-44
2021/04/04 00:39:27;;;;;;;26.20;12.60;;;;;;;2.47;80.33;100263.38;5119287;28;20047;-44
2021/04/04 00:41:53;;;;;;;31.20;12.73;;;;;;;2.46;79.93;100272.88;5119496;28;20039;-44
2021/04/04 00:44:19;;;;;;;24.90;11.65;;;;;;;2.40;79.87;100264.16;5118917;28;20043;-44
2021/04/04 00:46:44;;;;;;;24.98;11.88;;;;;;;2.32;80.11;100261.47;5118962;28;20148;-44
2021/04/04 00:49:10;;;;;;;27.65;11.80;;;;;;;2.26;80.17;100275.16;5118804;28;20132;-44
2021/04/04 00:51:36;;;;;;;21.88;10.32;;;;;;;2.31;79.93;100270.94;5119078;28;20051;-44
2021/04/04 00:54:06;;;;;;;24.88;11.98;;;;;;;2.22;79.86;100268.19;5117912;28;20085;-44
2021/04/04 00:56:32;;;;;;;26.77;11.80;;;;;;;2.20;79.72;100267.28;5118987;28;20055;-44
2021/04/04 00:58:58;;;;;;;24.83;11.23;;;;;;;2.13;80.05;100270.63;5118701;28;20357;-44
2021/04/04 01:01:25;;;;;;;22.45;10.77;;;;;;;2.05;80.44;100269.66;5118820;28;20044;-43
2021/04/04 01:03:50;;;;;;;22.63;10.82;;;;;;;2.04;80.62;100278.22;5118819;28;20059;-44
2021/04/04 01:06:16;;;;;;;25.88;11.50;;;;;;;2.04;80.43;100273.06;5118429;28;20071;-44
2021/04/04 01:08:42;;;;;;;24.75;11.32;;;;;;;1.96;80.50;100272.94;5118746;28;20047;-44
2021/04/04 01:11:08;;;;;;;24.88;10.93;;;;;;;1.96;80.46;100280.69;5118250;28;20055;-44
2021/04/04 01:13:50;;;;;;;27.13;11.55;;;;;;;1.88;80.29;100277.09;5117818;28;20039;-44
2021/04/04 01:16:23;;;;;;;27.58;11.15;;;;;;;1.79;80.52;100277.81;5118131;28;20092;-44
2021/04/04 01:19:03;;;;;;;23.77;10.80;;;;;;;1.76;80.35;100282.06;5118624;28;20418;-43
2021/04/04 01:21:44;;;;;;;19.80;9.80;;;;;;;1.66;80.45;100273.28;5100462;28;20040;-44
2021/04/04 01:24:45;;;;;;;22.23;10.88;;;;;;;1.57;80.35;100283.44;5117632;28;20058;-44
2021/04/04 01:27:23;;;;;;;26.70;10.05;;;;;;;1.55;80.55;100282.53;5119286;28;20048;-44
2021/04/04 01:29:49;;;;;;;24.00;10.57;;;;;;;1.44;81.01;100287.47;5118087;28;20096;-44
2021/04/04 01:32:15;;;;;;;23.33;10.70;;;;;;;1.43;81.00;100290.91;5118070;28;20043;-44
2021/04/04 01:34:40;;;;;;;25.17;12.40;;;;;;;1.35;81.24;100282.13;5118268;27;20078;-44
2021/04/04 01:37:09;;;;;;;26.15;12.43;;;;;;;1.31;81.59;100286.38;5100558;28;20373;-44
2021/04/04 01:39:56;;;;;;;22.05;9.80;;;;;;;1.30;81.48;100289.81;5116978;28;20472;-44
2021/04/04 01:42:21;;;;;;;23.95;10.38;;;;;;;1.23;81.70;100295.66;5116852;28;20357;-44
2021/04/04 01:44:47;;;;;;;18.80;9.68;;;;;;;1.19;82.11;100288.69;5116858;28;20058;-44
2021/04/04 01:47:13;;;;;;;23.65;11.15;;;;;;;1.06;82.73;100290.16;5116892;28;20039;-44
2021/04/04 01:49:40;;;;;;;23.38;11.05;;;;;;;1.06;83.28;100290.16;5099778;28;20085;-43
2021/04/04 01:52:05;;;;;;;19.33;11.05;;;;;;;1.10;83.07;100291.09;5116699;28;20050;-44
2021/04/04 01:54:31;;;;;;;23.73;9.40;;;;;;;1.14;82.54;100280.00;5099756;28;20051;-43
2021/04/04 01:56:57;;;;;;;20.92;10.23;;;;;;;1.03;82.67;100290.09;5116646;28;20134;-43
2021/04/04 01:59:23;;;;;;;18.23;9.23;;;;;;;1.02;83.00;100285.78;5099945;28;20055;-44
2021/04/04 02:01:49;;;;;;;22.15;9.63;;;;;;;0.96;82.96;100285.66;5117622;28;20055;-43
2021/04/04 02:04:15;;;;;;;19.45;9.07;;;;;;;0.96;83.17;100285.66;5117650;28;20350;-44
2021/04/04 02:06:44;;;;;;;19.88;10.00;;;;;;;0.89;83.43;100284.63;5116762;28;20051;-43
2021/04/04 02:09:11;;;;;;;21.30;9.98;;;;;;;0.86;83.62;100283.72;5116473;28;20052;-44
2021/04/04 02:11:37;;;;;;;24.55;10.77;;;;;;;0.83;83.93;100281.94;5117510;28;20062;-44
2021/04/04 02:14:07;;;;;;;19.48;9.85;;;;;;;0.88;83.67;100277.75;5116606;28;20052;-43
2021/04/04 02:16:35;;;;;;;19.30;9.57;;;;;;;0.89;83.47;100281.19;5116837;28;20036;-44
2021/04/04 02:19:02;;;;;;;17.70;9.00;;;;;;;0.84;83.57;100282.78;5116523;28;20522;-44
2021/04/04 02:21:28;;;;;;;22.60;10.02;;;;;;;0.80;83.58;100281.00;5117591;28;20039;-44
2021/04/04 02:23:54;;;;;;;28.20;10.73;;;;;;;0.74;83.91;100273.13;5099524;28;20047;-44
2021/04/04 02:26:20;;;;;;;19.83;9.98;;;;;;;0.75;83.91;100277.44;5116406;28;20441;-44
2021/04/04 02:28:45;;;;;;;21.30;9.95;;;;;;;0.74;83.64;100276.56;5117200;28;20437;-44
2021/04/04 02:31:12;;;;;;;19.90;9.50;;;;;;;0.68;83.84;100276.41;5116053;28;20058;-44
2021/04/04 02:33:54;;;;;;;20.48;9.55;;;;;;;0.72;83.62;100278.25;5099207;28;20327;-44
2021/04/04 02:36:20;;;;;;;22.77;9.82;;;;;;;0.61;83.79;100269.41;5116245;28;20047;-44
2021/04/04 02:38:47;;;;;;;22.45;8.98;;;;;;;0.59;83.86;100282.25;5099128;28;20057;-44
2021/04/04 02:41:13;;;;;;;21.10;10.48;;;;;;;0.59;83.66;100277.09;5115832;28;20092;-43
2021/04/04 02:43:40;;;;;;;21.50;10.88;;;;;;;0.47;83.81;100274.25;5115853;28;20040;-43
2021/04/04 02:46:08;;;;;;;18.98;9.57;;;;;;;0.52;84.13;100274.34;5099259;28;20047;-43
2021/04/04 02:48:44;;;;;;;18.60;9.32;;;;;;;0.56;83.75;100282.19;5099047;28;20043;-53
2021/04/04 02:51:11;;;;;;;21.25;9.85;;;;;;;0.42;83.76;100283.56;5099463;28;20048;-54
2021/04/04 02:53:39;;;;;;;22.25;10.50;;;;;;;0.41;83.74;100277.53;5115991;28;20047;-54
2021/04/04 02:56:05;;;;;;;20.25;10.18;;;;;;;0.37;83.87;100277.44;5099486;28;20043;-54
2021/04/04 02:58:30;;;;;;;19.83;9.77;;;;;;;0.30;84.17;100283.28;5115928;28;20047;-53
2021/04/04 03:00:57;;;;;;;18.00;8.88;;;;;;;0.31;84.21;100280.75;5098896;28;20345;-54
2021/04/04 03:03:23;;;;;;;19.45;8.73;;;;;;;0.27;84.00;100276.34;5115541;28;20107;-54
2021/04/04 03:05:49;;;;;;;19.35;8.77;;;;;;;0.28;83.84;100284.94;5115812;28;20047;-54
2021/04/04 03:08:15;;;;;;;20.73;10.18;;;;;;;0.21;83.85;100278.78;5098888;28;20467;-54
2021/04/04 03:10:40;;;;;;;19.67;9.65;;;;;;;0.20;83.91;100279.63;5116341;28;20357;-53
2021/04/04 03:13:06;;;;;;;19.13;9.68;;;;;;;0.12;83.86;100278.56;5098851;28;20051;-54
2021/04/04 03:15:32;;;;;;;22.10;9.98;;;;;;;0.16;83.88;100276.09;5116650;28;20047;-54
2021/04/04 03:17:58;;;;;;;23.38;9.70;;;;;;;0.14;83.45;100276.91;5115742;28;20063;-53
2021/04/04 03:20:25;;;;;;;25.23;9.63;;;;;;;0.15;83.50;100269.19;5116016;28;20039;-53
2021/04/04 03:22:50;;;;;;;30.13;9.77;;;;;;;0.15;83.02;100273.47;5115661;28;20044;-53
2021/04/04 03:25:16;;;;;;;22.73;9.52;;;;;;;0.13;82.68;100273.47;5098797;28;20048;-54
2021/04/04 03:27:44;;;;;;;24.60;11.50;;;;;;;0.09;82.36;100273.31;5115676;28;20059;-54
2021/04/04 03:30:34;;;;;;;24.55;10.15;;;;;;;0.05;82.00;100272.38;5119017;28;20043;-53
2021/04/04 03:33:03;;;;;;;25.30;10.27;;;;;;;-0.02;81.58;100273.94;5119521;28;20043;-53
2021/04/04 03:35:29;;;;;;;22.42;10.23;;;;;;;-0.04;81.49;100269.56;5103563;28;20097;-54
2021/04/04 03:37:55;;;;;;;22.80;11.38;;;;;;;-0.09;81.27;100266.03;5119420;28;20035;-53
2021/04/04 03:40:21;;;;;;;24.17;11.10;;;;;;;-0.10;81.21;100267.75;5119366;28;20130;-53
2021/04/04 03:42:47;;;;;;;24.10;9.93;;;;;;;-0.11;81.24;100272.84;5119445;28;20062;-53
2021/04/04 03:45:13;;;;;;;20.80;10.32;;;;;;;-0.17;81.45;100270.97;5102255;28;20357;-54
2021/04/04 03:47:39;;;;;;;21.00;9.38;;;;;;;-0.23;81.19;100273.38;5119466;28;20058;-54
2021/04/04 03:50:05;;;;;;;22.55;10.77;;;;;;;-0.29;81.15;100266.38;5119423;28;20052;-53
2021/04/04 03:52:32;;;;;;;19.50;8.95;;;;;;;-0.32;80.86;100270.59;5119395;28;20062;-53
2021/04/04 03:54:58;;;;;;;17.73;8.27;;;;;;;-0.37;80.71;100277.31;5120202;28;20047;-53
2021/04/04 03:57:23;;;;;;;23.52;10.30;;;;;;;-0.41;80.89;100278.06;5119265;28;20048;-53
2021/04/04 03:59:49;;;;;;;19.35;9.73;;;;;;;-0.51;80.83;100279.53;5102066;28;20128;-54
2021/04/04 04:02:15;;;;;;;23.00;9.93;;;;;;;-0.57;80.65;100275.06;5119110;28;20047;-53
2021/04/04 04:04:40;;;;;;;16.85;8.48;;;;;;;-0.57;80.87;100280.22;5119163;28;20396;-53
2021/04/04 04:07:06;;;;;;;18.55;8.70;;;;;;;-0.59;80.77;100279.28;5118802;28;20052;-54
2021/04/04 04:09:32;;;;;;;17.65;8.20;;;;;;;-0.65;80.51;100285.97;5101690;28;20055;-53
2021/04/04 04:11:58;;;;;;;18.23;7.78;;;;;;;-0.64;80.69;100278.31;5119045;28;20101;-54
2021/04/04 04:14:23;;;;;;;16.88;8.05;;;;;;;-0.67;80.57;100282.50;5102334;28;20330;-53
2021/04/04 04:16:50;;;;;;;17.02;8.52;;;;;;;-0.73;80.90;100278.91;5119780;28;20130;-53
2021/04/04 04:19:16;;;;;;;19.17;8.77;;;;;;;-0.76;81.48;100277.97;5119094;28;20050;-53
2021/04/04 04:21:41;;;;;;;18.90;8.50;;;;;;;-0.76;81.75;100275.41;5118739;28;20047;-53
2021/04/04 04:24:12;;;;;;;16.33;7.45;;;;;;;-0.75;81.66;100277.13;5118770;28;20047;-53
2021/04/04 04:26:41;;;;;;;18.52;7.82;;;;;;;-0.75;81.44;100278.03;5118778;28;20043;-54
2021/04/04 04:29:07;;;;;;;18.90;8.05;;;;;;;-0.79;81.22;100272.72;5119552;28;20078;-54
2021/04/04 04:31:35;;;;;;;18.88;8.75;;;;;;;-0.80;81.19;100278.72;5118612;28;20437;-53
2021/04/04 04:34:01;;;;;;;16.30;7.50;;;;;;;-0.82;81.27;100278.66;5118772;28;20043;-53
2021/04/04 04:36:27;;;;;;;18.65;8.60;;;;;;;-0.79;81.48;100278.75;5119128;28;20483;-53
2021/04/04 04:38:53;;;;;;;20.10;9.55;;;;;;;-0.78;81.72;100284.75;5118933;28;20082;-53
2021/04/04 04:41:19;;;;;;;18.55;9.43;;;;;;;-0.80;82.10;100286.44;5117612;28;20044;-53
2021/04/04 04:43:47;;;;;;;16.58;8.57;;;;;;;-0.75;82.36;100282.28;5101421;28;20058;-53
2021/04/04 04:46:13;;;;;;;20.42;9.60;;;;;;;-0.71;82.31;100285.00;5118977;28;20046;-54
2021/04/04 04:48:39;;;;;;;19.27;9.88;;;;;;;-0.70;82.12;100288.44;5118271;28;20051;-53
2021/04/04 04:51:05;;;;;;;20.48;8.85;;;;;;;-0.69;82.06;100295.31;5118282;28;20047;-53
2021/04/04 04:53:31;;;;;;;17.73;8.82;;;;;;;-0.66;82.25;100292.81;5100989;28;20445;-53
2021/04/04 04:56:01;;;;;;;20.40;10.13;;;;;;;-0.61;82.28;100288.69;5118731;28;20111;-53
2021/04/04 04:58:30;;;;;;;17.75;9.70;;;;;;;-0.55;82.48;100290.56;5118972;28;20047;-53
2021/04/04 05:00:58;;;;;;;26.85;9.88;;;;;;;-0.52;82.31;100288.06;5119192;28;20036;-53
2021/04/04 05:03:24;;;;;;;21.85;10.73;;;;;;;-0.52;82.11;100294.09;5118641;28;20040;-53
2021/04/04 05:05:50;;;;;;;20.48;10.30;;;;;;;-0.47;82.43;100299.34;5118038;28;20062;-53
2021/04/04 05:08:15;;;;;;;20.85;11.80;;;;;;;-0.37;83.09;100300.47;5117713;28;20490;-53
2021/04/04 05:10:41;;;;;;;26.48;11.18;;;;;;;-0.32;83.15;100301.50;5100483;28;20055;-54
2021/04/04 05:13:07;;;;;;;18.95;10.88;;;;;;;-0.16;83.39;100300.16;5117801;28;20043;-53
2021/04/04 05:15:32;;;;;;;21.00;10.50;;;;;;;0.06;83.68;100312.75;5084019;28;20035;-53
2021/04/04 05:17:58;;;;;;;25.13;13.32;;;;;;;0.26;83.80;100310.69;5100787;28;20039;-53
2021/04/04 05:20:24;;;;;;;25.63;12.25;;;;;;;0.50;84.10;100310.41;5101031;28;20418;-53
2021/04/04 05:22:50;;;;;;;25.75;12.48;;;;;;;0.76;84.06;100315.28;5117577;28;20039;-53
2021/04/04 05:25:15;;;;;;;20.05;11.18;;;;;;;1.19;84.43;100314.50;5117292;28;20467;-53
2021/04/04 05:27:41;;;;;;;28.10;12.27;;;;;;;1.83;84.29;100314.91;5117520;28;20105;-53
2021/04/04 05:30:11;;;;;;;28.45;12.65;;;;;;;2.71;83.29;100312.91;5118144;28;20035;-53
2021/04/04 05:32:44;;;;;;;23.90;10.93;;;;;;;3.74;80.88;100311.63;5118067;28;20456;-54
2021/04/04 05:35:16;;;;;;;35.67;13.68;;;;;;;4.40;77.84;100309.63;5118022;28;20043;-53
2021/04/04 05:37:43;;;;;;;25.55;11.27;;;;;;;4.64;75.82;100308.94;5117993;28;20043;-53
2021/04/04 05:40:22;;;;;;;19.88;11.07;;;;;;;4.91;75.13;100309.13;5118175;28;20120;-54
2021/04/04 05:42:53;;;;;;;18.38;11.13;;;;;;;5.64;74.27;100305.13;5118102;28;20048;-54
2021/04/04 05:45:46;;;;;;;21.92;11.32;;;;;;;6.45;71.11;100302.66;5118104;28;20048;-54
2021/04/04 05:48:35;;;;;;;20.13;10.55;;;;;;;7.16;69.61;100300.78;5117187;28;20108;-54
2021/04/04 05:51:31;;;;;;;21.27;9.57;;;;;;;7.83;67.33;100291.78;5117436;28;20126;-54
2021/04/04 05:54:28;;;;;;;17.83;9.35;;;;;;;8.24;65.54;100295.84;5117157;28;20043;-54
2021/04/04 05:56:57;;;;;;;16.20;7.70;;;;;;;8.74;63.37;100304.13;5116978;28;20058;-54
2021/04/04 05:59:32;;;;;;;15.90;8.32;;;;;;;8.83;60.92;100302.28;5116616;28;20381;-55
2021/04/04 06:02:00;;;;;;;16.27;8.45;;;;;;;8.89;60.22;100307.44;5117692;28;20054;-55
2021/04/04 06:05:01;;;;;;;15.77;8.27;;;;;;;8.89;59.99;100296.16;5117707;28;20047;-55
2021/04/04 06:07:52;;;;;;;17.63;9.57;;;;;;;9.14;58.55;100291.53;5117188;28;20043;-55
2021/04/04 06:10:46;;;;;;;17.48;8.98;;;;;;;9.20;59.98;100294.06;5117143;28;20048;-55
2021/04/04 06:13:37;;;;;;;15.63;7.03;;;;;;;9.35;58.04;100300.84;5098238;28;20100;-55
2021/04/04 06:16:11;;;;;;;14.48;7.97;;;;;;;8.90;59.01;100295.25;5116297;28;20059;-55
2021/04/04 06:19:00;;;;;;;14.63;8.82;;;;;;;8.89;59.75;100294.38;5116661;28;20073;-55
2021/04/04 06:21:37;;;;;;;15.32;8.77;;;;;;;9.34;57.95;100278.22;5116575;28;20047;-55
2021/04/04 06:24:28;;;;;;;17.15;8.77;;;;;;;9.53;56.52;100284.94;5116487;28;20047;-55
2021/04/04 06:27:29;;;;;;;15.20;8.52;;;;;;;10.07;55.65;100282.44;5117077;28;20379;-55
2021/04/04 06:30:03;;;;;;;17.05;9.18;;;;;;;10.51;54.95;100280.00;5116668;28;20410;-55
2021/04/04 06:32:37;;;;;;;13.05;7.78;;;;;;;10.92;52.78;100283.59;5116912;28;20434;-55
2021/04/04 06:35:13;;;;;;;13.68;7.22;;;;;;;11.35;52.90;100270.53;5116009;28;20464;-55
2021/04/04 06:38:13;;;;;;;13.35;6.78;;;;;;;11.90;50.34;100279.84;5115986;28;20445;-55
2021/04/04 06:41:05;;;;;;;16.80;7.95;;;;;;;12.16;49.48;100281.00;5116742;28;20131;-56
2021/04/04 06:43:41;;;;;;;17.95;8.98;;;;;;;12.62;48.22;100280.69;5111942;28;20468;-56
2021/04/04 06:46:43;;;;;;;16.20;8.05;;;;;;;12.62;47.43;100279.84;5116156;28;20062;-56
2021/04/04 06:49:14;;;;;;;16.92;8.57;;;;;;;12.65;48.51;100277.13;5116192;28;20051;-56
2021/04/04 06:52:00;;;;;;;13.35;7.47;;;;;;;13.32;46.57;100267.44;5116765;28;20104;-56
2021/04/04 06:55:06;;;;;;;12.50;6.13;;;;;;;13.67;43.73;100269.91;5115993;28;20065;-57
2021/04/04 06:57:50;;;;;;;10.27;6.55;;;;;;;13.83;43.25;100267.66;5116004;28;20071;-57
2021/04/04 07:00:22;;;;;;;7.70;4.57;;;;;;;14.00;41.77;100270.63;5116861;28;20059;-57
2021/04/04 07:02:56;;;;;;;45.05;14.07;;;;;;;14.21;40.90;100275.22;5115862;28;20047;-57
2021/04/04 07:05:24;;;;;;;24.52;12.30;;;;;;;14.35;41.49;100277.38;5116243;28;20044;-57
2021/04/04 07:08:33;;;;;;;20.75;8.38;;;;;;;14.56;40.15;100273.22;5099447;28;20043;-58
2021/04/04 07:11:21;;;;;;;13.18;7.43;;;;;;;13.72;39.95;100279.38;5115519;28;20113;-57
2021/04/04 07:13:56;;;;;;;8.25;5.07;;;;;;;14.29;40.97;100279.34;5115553;28;20058;-58
2021/04/04 07:16:48;;;;;;;10.18;4.63;;;;;;;14.64;38.83;100276.44;5115527;28;20480;-58
2021/04/04 07:19:37;;;;;;;5.35;2.60;;;;;;;14.86;36.86;100276.56;5115749;28;20345;-58
2021/04/04 07:22:15;;;;;;;15.45;13.77;;;;;;;14.87;36.17;100285.31;5116267;28;20429;-58
2021/04/04 07:24:50;;;;;;;32.60;29.50;;;;;;;15.23;36.61;100283.13;5116558;28;20154;-58
2021/04/04 07:27:58;;;;;;;10.50;7.57;;;;;;;15.32;35.22;100284.59;5116899;28;20425;-58
2021/04/04 07:30:35;;;;;;;4.40;2.10;;;;;;;15.37;34.85;100282.63;5092216;28;20051;-58
2021/04/04 07:33:13;;;;;;;6.53;2.08;;;;;;;15.57;34.73;100281.88;5115407;28;20369;-58
2021/04/04 07:35:43;;;;;;;2.75;1.42;;;;;;;15.00;33.44;100280.47;5116242;28;20040;-58
2021/04/04 07:38:19;;;;;;;7.68;3.55;;;;;;;15.57;34.00;100281.88;5116247;28;20040;-59
2021/04/04 07:41:30;;;;;;;10.48;5.00;;;;;;;15.36;33.10;100287.03;5115287;28;20480;-59
2021/04/04 07:44:10;;;;;;;9.23;5.43;;;;;;;15.45;34.01;100299.03;5116732;28;20048;-59
2021/04/04 07:46:50;;;;;;;7.85;4.57;;;;;;;15.55;34.08;100297.78;5115576;28;20132;-59
2021/04/04 07:49:41;;;;;;;8.88;4.68;;;;;;;15.26;32.15;100293.56;5112989;28;20441;-47
2021/04/04 07:52:37;;;;;;;7.85;3.90;;;;;;;15.43;32.71;100291.16;5103945;28;20048;-46
2021/04/04 07:55:16;;;;;;;6.65;3.78;;;;;;;15.68;34.14;100294.72;5070383;28;20125;-46
2021/04/04 07:58:16;;;;;;;6.35;3.47;;;;;;;15.49;31.25;100291.88;5095943;28;20076;-46
2021/04/04 08:01:02;;;;;;;11.32;5.32;;;;;;;15.27;33.83;100299.72;5094852;28;20046;-46
2021/04/04 08:03:48;;;;;;;10.73;5.78;;;;;;;15.08;33.54;100296.88;5095183;28;20048;-46
2021/04/04 08:06:14;;;;;;;15.73;8.00;;;;;;;14.80;34.38;100287.31;5094896;28;20044;-46
2021/04/04 08:08:41;;;;;;;14.68;6.70;;;;;;;14.55;34.70;100294.34;5093564;28;20503;-46
2021/04/04 08:11:22;;;;;;;8.10;4.10;;;;;;;14.06;34.30;100293.28;5076136;28;20048;-46
2021/04/04 08:14:00;;;;;;;5.82;2.75;;;;;;;13.87;35.34;100288.56;5094204;28;20135;-46
2021/04/04 08:16:39;;;;;;;6.32;2.90;;;;;;;13.72;36.07;100294.31;5096507;28;20449;-46
2021/04/04 08:19:04;;;;;;;7.82;4.05;;;;;;;13.57;36.70;100293.84;5098807;28;20078;-46
2021/04/04 08:21:32;;;;;;;6.70;3.28;;;;;;;13.34;36.79;100285.78;5098448;28;20124;-46
2021/04/04 08:24:06;;;;;;;7.88;3.95;;;;;;;12.89;38.04;100287.88;5081656;28;20351;-46
2021/04/04 08:26:38;;;;;;;6.47;3.33;;;;;;;12.48;38.21;100297.69;5098369;28;20052;-46
2021/04/04 08:29:45;;;;;;;6.22;2.58;;;;;;;11.78;38.68;100292.34;5099155;28;20052;-46
2021/04/04 08:32:13;;;;;;;9.90;4.97;;;;;;;11.63;39.74;100294.41;5040348;28;20045;-45
2021/04/04 08:34:48;;;;;;;7.55;3.75;;;;;;;11.48;40.02;100293.88;5056967;28;20363;-46
2021/04/04 08:37:20;;;;;;;5.47;2.60;;;;;;;11.30;39.88;100297.72;5080734;28;20048;-46
2021/04/04 08:39:55;;;;;;;3.85;2.03;;;;;;;11.05;40.05;100287.75;5098201;28;20040;-45
2021/04/04 08:42:21;;;;;;;45.90;17.00;;;;;;;11.00;41.78;100292.19;5097634;28;20464;-45
2021/04/04 08:44:54;;;;;;;101.22;34.05;;;;;;;10.99;41.90;100295.72;5098907;28;20127;-45
2021/04/04 08:47:30;;;;;;;197.85;60.45;;;;;;;10.84;42.96;100294.22;5098304;28;20101;-45
2021/04/04 08:50:00;;;;;;;278.10;85.90;;;;;;;10.46;43.25;100298.41;5081178;28;20131;-45
2021/04/04 08:52:31;;;;;;;90.25;27.45;;;;;;;10.52;43.46;100293.03;5097532;28;20362;-45
2021/04/04 08:54:56;;;;;;;43.63;12.90;;;;;;;10.81;43.82;100293.44;5098437;28;20127;-45
2021/04/04 08:57:29;;;;;;;294.92;84.88;;;;;;;11.04;42.40;100287.75;5098613;28;20391;-45
2021/04/04 08:59:55;;;;;;;88.82;27.13;;;;;;;10.76;42.57;100294.38;5097988;28;20051;-45
2021/04/04 09:02:21;;;;;;;60.08;18.90;;;;;;;10.69;43.01;100286.66;5098444;28;20110;-46
2021/04/04 09:04:47;;;;;;;53.28;18.60;;;;;;;11.00;42.22;100294.81;5098267;28;20048;-45
2021/04/04 09:07:13;;;;;;;113.03;38.72;;;;;;;10.99;41.75;100291.34;5080808;28;20044;-46
2021/04/04 09:09:46;;;;;;;208.00;81.97;;;;;;;11.13;40.72;100288.44;5097989;28;20438;-46
2021/04/04 09:12:12;;;;;;;158.18;66.75;;;;;;;11.09;40.72;100291.16;5080892;28;20048;-46
2021/04/04 09:14:38;;;;;;;19.55;8.73;;;;;;;11.14;39.58;100286.69;5097209;28;20036;-45
2021/04/04 09:17:18;;;;;;;13.63;5.13;;;;;;;11.08;40.04;100286.78;5097406;28;20044;-46
2021/04/04 09:19:45;;;;;;;8.63;4.35;;;;;;;11.13;40.57;100277.94;5098002;28;20047;-46
2021/04/04 09:22:17;;;;;;;11.02;6.05;;;;;;;11.04;38.39;100283.38;5080410;28;20039;-46
2021/04/04 09:24:47;;;;;;;12.27;7.47;;;;;;;10.92;39.79;100278.34;5080367;28;20551;-45
2021/04/04 09:27:16;;;;;;;12.25;7.43;;;;;;;10.92;40.58;100275.72;5098333;28;20430;-46
2021/04/04 09:29:44;;;;;;;9.98;5.50;;;;;;;10.92;40.85;100273.13;5118464;28;20108;-45
2021/04/04 09:32:12;;;;;;;10.52;5.90;;;;;;;11.04;40.97;100261.53;5116679;28;20047;-58
2021/04/04 09:34:40;;;;;;;9.30;5.47;;;;;;;11.16;40.14;100267.41;5118258;28;20044;-46
2021/04/04 09:37:06;;;;;;;7.53;4.60;;;;;;;10.89;41.28;100275.81;5117416;28;20047;-46
2021/04/04 09:39:32;;;;;;;10.32;5.88;;;;;;;10.86;41.91;100276.75;5117579;28;20043;-45
2021/04/04 09:41:58;;;;;;;16.00;8.82;;;;;;;10.67;41.83;100268.34;5100357;28;20040;-46
2021/04/04 09:44:34;;;;;;;12.68;7.40;;;;;;;10.56;42.00;100274.66;5110388;28;20062;-45
2021/04/04 09:47:01;;;;;;;9.80;5.75;;;;;;;10.34;42.67;100268.94;5098024;28;20093;-46
2021/04/04 09:49:42;;;;;;;10.48;4.90;;;;;;;10.35;42.59;100258.44;5096443;28;20415;-45
2021/04/04 09:52:29;;;;;;;10.18;5.47;;;;;;;10.17;42.30;100243.00;5097571;28;20043;-45
2021/04/04 09:54:59;;;;;;;6.88;3.53;;;;;;;10.11;41.69;100261.41;5097603;28;20115;-45
2021/04/04 09:57:25;;;;;;;5.63;3.22;;;;;;;10.07;42.03;100261.47;5096053;28;20044;-46
2021/04/04 09:59:51;;;;;;;6.60;3.75;;;;;;;10.10;41.79;100262.31;5094418;28;20078;-45
2021/04/04 10:02:35;;;;;;;5.18;2.70;;;;;;;10.15;41.05;100258.72;5096174;28;20047;-45
2021/04/04 10:05:02;;;;;;;6.65;2.70;;;;;;;10.23;41.42;100255.97;5096531;28;20047;-45
2021/04/04 10:07:31;;;;;;;6.07;3.38;;;;;;;10.19;41.33;100249.94;5095248;28;20354;-58
2021/04/04 10:09:58;;;;;;;6.35;3.13;;;;;;;9.76;42.04;100255.84;5096838;28;20350;-58
2021/04/04 10:12:24;;;;;;;7.68;4.53;;;;;;;9.72;44.82;100253.31;5096933;28;20044;-58
2021/04/04 10:15:06;;;;;;;23.13;16.85;;;;;;;9.77;46.72;100257.56;5097130;28;20052;-58
2021/04/04 10:17:33;;;;;;;20.05;14.48;;;;;;;9.48;48.09;100257.97;5097145;28;20052;-57
2021/04/04 10:20:01;;;;;;;13.50;8.40;;;;;;;9.44;48.68;100260.66;5079523;28;20418;-57
2021/04/04 10:22:26;;;;;;;11.90;6.40;;;;;;;9.41;49.38;100251.09;5095808;28;20096;-57
2021/04/04 10:24:53;;;;;;;11.05;5.25;;;;;;;9.51;48.56;100246.59;5096109;28;20048;-57
2021/04/04 10:27:24;;;;;;;5.63;3.58;;;;;;;9.49;47.97;100248.38;5096898;28;20065;-57
2021/04/04 10:30:17;;;;;;;5.95;3.20;;;;;;;9.33;47.81;100245.97;5095861;28;20339;-57
2021/04/04 10:32:48;;;;;;;6.50;3.17;;;;;;;9.38;47.16;100237.19;5095891;28;20051;-58
2021/04/04 10:35:33;;;;;;;5.90;3.42;;;;;;;9.24;47.36;100230.41;5096535;28;20048;-57
2021/04/04 10:38:17;;;;;;;8.25;4.55;;;;;;;9.34;48.44;100229.41;5095362;28;20063;-45
2021/04/04 10:40:44;;;;;;;7.13;4.40;;;;;;;9.47;48.24;100224.88;5096445;28;20463;-45
2021/04/04 10:43:11;;;;;;;7.43;4.20;;;;;;;9.52;48.33;100222.19;5096555;28;20052;-45
2021/04/04 10:45:36;;;;;;;5.55;3.58;;;;;;;9.81;48.68;100219.13;5096707;28;20134;-46
2021/04/04 10:48:06;;;;;;;7.38;4.47;;;;;;;10.23;47.17;100214.94;5095520;28;20327;-45
2021/04/04 10:50:33;;;;;;;9.95;6.07;;;;;;;10.48;47.05;100215.44;5095488;28;20040;-45
2021/04/04 10:52:59;;;;;;;8.27;4.82;;;;;;;10.61;46.26;100208.22;5095480;28;20044;-45
2021/04/04 10:55:24;;;;;;;7.50;4.47;;;;;;;10.55;46.02;100213.56;5078600;28;20044;-46
2021/04/04 10:57:50;;;;;;;12.85;6.53;;;;;;;10.55;45.65;100205.69;5079780;28;20323;-45
2021/04/04 11:00:16;;;;;;;10.02;6.13;;;;;;;10.38;45.90;100198.16;5096193;28;20347;-45
2021/04/04 11:02:42;;;;;;;19.55;9.82;;;;;;;10.36;45.95;100199.06;5096481;28;20044;-57
2021/04/04 11:05:08;;;;;;;21.77;12.00;;;;;;;10.16;46.14;100202.00;5062198;28;20063;-58
2021/04/04 11:07:34;;;;;;;16.45;8.27;;;;;;;10.13;46.58;100205.53;5096111;28;20096;-58
2021/04/04 11:10:02;;;;;;;11.95;7.13;;;;;;;10.20;46.13;100203.66;5078547;28;20079;-57
2021/04/04 11:12:28;;;;;;;10.50;5.25;;;;;;;10.20;45.91;100199.31;5079149;28;20059;-58
2021/04/04 11:14:53;;;;;;;9.60;4.68;;;;;;;10.22;46.26;100196.66;5095541;28;20357;-57
2021/04/04 11:17:20;;;;;;;12.77;5.90;;;;;;;10.24;46.17;100185.28;5096001;28;20483;-57
2021/04/04 11:19:48;;;;;;;6.95;3.33;;;;;;;9.96;45.86;100191.88;5078439;28;20430;-58
2021/04/04 11:22:15;;;;;;;7.97;4.82;;;;;;;9.90;45.71;100191.97;5095700;28;20087;-46
2021/04/04 11:25:16;;;;;;;5.53;3.33;;;;;;;9.88;45.16;100191.13;5095075;28;20058;-45
2021/04/04 11:27:49;;;;;;;6.50;3.28;;;;;;;10.05;45.23;100181.25;5096022;28;20056;-45
2021/04/04 11:30:15;;;;;;;;;;;;;;;9.80;43.72;100176.41;5095839;28;20040;-45
2021/04/04 11:32:43;;;;;;;7.15;2.53;;;;;;;9.90;43.64;100178.88;5096525;28;19923;-45
2021/04/04 11:35:09;;;;;;;4.72;2.00;;;;;;;9.88;42.10;100178.03;5096475;28;20044;-45
2021/04/04 11:37:40;;;;;;;3.13;1.75;;;;;;;9.69;43.05;100177.50;5095988;28;20032;-57
2021/04/04 11:40:16;;;;;;;5.30;2.42;;;;;;;9.78;43.20;100174.72;5078446;28;20048;-58